Time;durP1;ratioP1;P1;durP2;ratioP2;P2;SDS_P1;SDS_P2;PMS_P1;PMS_P2;Temp;Humidity;BMP_temperature;BMP_pressure;BME280_temperature;BME280_humidity;BME280_pressure;Samples;Min_cycle;Max_cycle;Signal;HPM_P1;HPM_P2
2021/07/23 00:01:31;;;;;;;5.10;4.70;;;;;;;25.86;42.27;98587.38;5037540;28;20251;-57
2021/07/23 00:03:58;;;;;;;5.03;4.63;;;;;;;25.86;42.38;98592.72;5038281;28;20534;-57
2021/07/23 00:06:30;;;;;;;5.00;4.60;;;;;;;25.87;42.27;98584.47;5035428;28;20197;-57
2021/07/23 00:08:57;;;;;;;5.30;4.80;;;;;;;25.89;42.38;98584.28;5036562;28;20191;-56
2021/07/23 00:11:23;;;;;;;5.10;4.70;;;;;;;25.88;42.23;98587.97;5035498;28;20194;-55
2021/07/23 00:13:50;;;;;;;5.60;4.80;;;;;;;25.89;42.39;98584.28;5035624;28;20194;-56
2021/07/23 00:16:16;;;;;;;5.13;4.73;;;;;;;25.82;42.51;98581.59;5035323;28;20216;-57
2021/07/23 00:18:43;;;;;;;4.90;4.50;;;;;;;25.82;42.25;98580.78;5036088;28;20194;-55
2021/07/23 00:21:09;;;;;;;5.23;4.83;;;;;;;25.73;42.57;98583.66;5036907;28;20214;-55
2021/07/23 00:23:35;;;;;;;4.90;4.37;;;;;;;25.70;42.79;98581.41;5037100;28;20191;-56
2021/07/23 00:26:09;;;;;;;5.07;4.67;;;;;;;25.68;42.59;98578.13;5036913;28;20561;-57
2021/07/23 00:28:35;;;;;;;4.93;4.53;;;;;;;25.65;42.61;98581.19;5036796;28;20208;-57
2021/07/23 00:31:02;;;;;;;5.03;4.53;;;;;;;25.65;42.74;98574.00;5034930;28;20214;-56
2021/07/23 00:33:28;;;;;;;5.50;4.50;;;;;;;25.71;42.52;98579.53;5036450;28;20194;-57
2021/07/23 00:35:55;;;;;;;4.83;4.43;;;;;;;25.71;42.73;98579.53;5034955;28;20232;-55
2021/07/23 00:38:21;;;;;;;4.60;4.20;;;;;;;25.65;42.63;98575.84;5034788;28;20200;-56
2021/07/23 00:40:48;;;;;;;5.20;4.80;;;;;;;25.62;42.77;98576.25;5036507;28;20237;-56
2021/07/23 00:43:15;;;;;;;4.80;4.40;;;;;;;25.74;42.40;98582.63;5035180;28;20236;-57
2021/07/23 00:45:42;;;;;;;4.97;4.53;;;;;;;25.65;42.67;98581.19;5035797;28;20203;-56
2021/07/23 00:48:09;;;;;;;5.17;4.77;;;;;;;25.65;42.67;98579.34;5034364;28;20213;-57
2021/07/23 00:50:35;;;;;;;4.53;4.13;;;;;;;25.67;42.60;98579.16;5035899;28;20583;-57
2021/07/23 00:53:04;;;;;;;4.67;4.27;;;;;;;25.71;42.74;98575.03;5036250;28;20563;-56
2021/07/23 00:55:32;;;;;;;4.63;4.23;;;;;;;25.71;42.41;98574.19;5034763;28;20206;-57
2021/07/23 00:58:00;;;;;;;5.23;4.73;;;;;;;25.69;42.67;98576.25;5034543;28;20186;-57
2021/07/23 01:00:28;;;;;;;5.10;4.60;;;;;;;25.63;42.73;98567.19;5034856;28;20214;-56
2021/07/23 01:02:59;;;;;;;5.07;4.67;;;;;;;25.63;42.67;98567.19;5036823;28;20524;-55
2021/07/23 01:05:26;;;;;;;5.30;4.80;;;;;;;25.63;42.47;98568.03;5036590;28;20205;-55
2021/07/23 01:07:53;;;;;;;5.03;4.53;;;;;;;25.65;42.59;98567.81;5037073;28;20213;-56
2021/07/23 01:10:20;;;;;;;5.37;4.87;;;;;;;25.62;42.65;98561.06;5040428;28;20264;-55
2021/07/23 01:13:05;;;;;;;4.37;4.03;;;;;;;25.62;42.58;98569.06;5040617;28;20189;-55
2021/07/23 01:15:34;;;;;;;4.93;4.53;;;;;;;25.56;42.79;98566.38;5038375;28;20620;-56
2021/07/23 01:18:02;;;;;;;4.83;4.43;;;;;;;25.53;42.84;98564.94;5038620;28;20196;-57
2021/07/23 01:20:29;;;;;;;5.20;4.70;;;;;;;25.51;42.99;98564.31;5037621;28;20214;-57
2021/07/23 01:23:00;;;;;;;4.83;4.43;;;;;;;25.60;42.58;98564.94;5038797;28;20197;-57
2021/07/23 01:25:30;;;;;;;5.07;4.60;;;;;;;25.48;42.96;98565.53;5038553;28;20226;-55
2021/07/23 01:27:57;;;;;;;4.33;3.93;;;;;;;25.42;43.17;98558.31;5038856;28;20323;-55
2021/07/23 01:30:49;;;;;;;5.10;4.60;;;;;;;25.41;43.10;98558.53;5037906;28;20236;-57
2021/07/23 01:33:26;;;;;;;4.93;4.53;;;;;;;25.42;43.22;98555.66;5023556;28;20197;-57
2021/07/23 01:35:53;;;;;;;5.17;4.67;;;;;;;25.47;42.96;98558.53;5038715;28;20191;-56
2021/07/23 01:38:24;;;;;;;4.73;4.30;;;;;;;25.46;42.95;98548.88;5040314;28;20636;-56
2021/07/23 01:40:52;;;;;;;5.57;5.07;;;;;;;25.46;42.96;98550.75;5039403;28;20206;-57
2021/07/23 01:43:20;;;;;;;5.03;4.63;;;;;;;25.48;42.83;98554.84;5038168;28;20186;-57
2021/07/23 01:45:47;;;;;;;4.63;4.23;;;;;;;25.50;42.87;98550.16;5039209;28;20218;-57
2021/07/23 01:48:39;;;;;;;4.67;4.27;;;;;;;25.50;42.77;98552.84;5030631;28;20624;-57
2021/07/23 01:51:14;;;;;;;5.07;4.57;;;;;;;25.54;42.64;98549.75;5037984;28;20687;-57
2021/07/23 01:53:45;;;;;;;5.07;4.57;;;;;;;25.57;42.69;98554.66;5038612;28;20190;-55
2021/07/23 01:56:11;;;;;;;4.83;4.43;;;;;;;25.61;42.57;98547.88;5037549;28;20270;-57
2021/07/23 01:58:38;;;;;;;5.23;4.83;;;;;;;25.57;42.75;98552.00;5037828;28;20190;-55
2021/07/23 02:01:05;;;;;;;4.87;4.47;;;;;;;25.51;42.58;98546.47;5037717;28;20214;-56
2021/07/23 02:03:34;;;;;;;5.30;4.80;;;;;;;25.52;42.89;98549.94;5037417;28;20200;-55
2021/07/23 02:06:02;;;;;;;5.37;4.87;;;;;;;25.70;42.39;98546.66;5020615;28;20590;-56
2021/07/23 02:08:31;;;;;;;4.93;4.53;;;;;;;25.66;42.49;98540.09;5037829;28;20220;-57
2021/07/23 02:11:01;;;;;;;5.20;4.70;;;;;;;25.55;42.53;98546.03;5037983;28;20304;-57
2021/07/23 02:13:28;;;;;;;5.27;4.80;;;;;;;25.50;42.70;98544.81;5037636;28;20201;-56
2021/07/23 02:15:57;;;;;;;5.00;4.60;;;;;;;25.50;42.72;98543.97;5037482;28;20199;-56
2021/07/23 02:18:25;;;;;;;4.53;4.13;;;;;;;25.47;43.04;98531.81;5036703;28;20190;-57
2021/07/23 02:20:53;;;;;;;5.67;5.07;;;;;;;25.48;42.74;98533.47;5037342;28;20214;-56
2021/07/23 02:23:20;;;;;;;4.83;4.43;;;;;;;25.50;42.67;98531.47;5039131;28;20244;-54
2021/07/23 02:25:46;;;;;;;5.23;4.73;;;;;;;25.52;42.86;98533.91;5037456;28;20190;-57
2021/07/23 02:28:16;;;;;;;4.60;4.20;;;;;;;25.51;42.77;98535.78;5037731;28;20301;-56
2021/07/23 02:30:45;;;;;;;5.40;4.90;;;;;;;25.50;42.66;98526.13;5037554;28;20304;-57
2021/07/23 02:33:22;;;;;;;7.97;4.50;;;;;;;25.50;42.55;98525.28;5038354;28;20624;-57
2021/07/23 02:35:53;;;;;;;5.00;4.60;;;;;;;25.50;42.63;98522.59;5021463;28;20194;-56
2021/07/23 02:38:20;;;;;;;5.00;4.60;;;;;;;25.54;42.38;98525.69;5037556;28;20568;-55
2021/07/23 02:40:56;;;;;;;5.03;4.57;;;;;;;25.48;42.77;98525.47;5036901;28;20237;-56
2021/07/23 02:43:24;;;;;;;5.37;4.87;;;;;;;25.48;42.72;98522.00;5037481;28;20261;-57
2021/07/23 02:45:52;;;;;;;4.73;4.33;;;;;;;25.46;42.90;98530.16;5037503;28;20202;-57
2021/07/23 02:48:19;;;;;;;5.17;4.43;;;;;;;25.45;42.75;98525.84;5037275;28;20253;-55
2021/07/23 02:50:46;;;;;;;4.80;4.40;;;;;;;25.56;42.68;98523.63;5036136;28;20314;-55
2021/07/23 02:53:13;;;;;;;5.57;4.87;;;;;;;25.61;42.34;98521.16;5036708;28;20668;-55
2021/07/23 02:55:45;;;;;;;5.10;4.63;;;;;;;25.55;42.36;98522.81;5037000;28;20656;-56
2021/07/23 02:58:12;;;;;;;4.73;4.23;;;;;;;25.55;42.24;98517.47;5036916;28;20204;-55
2021/07/23 03:00:39;;;;;;;4.97;4.47;;;;;;;25.51;42.49;98517.06;5038340;28;20206;-55
2021/07/23 03:03:06;;;;;;;4.70;4.30;;;;;;;25.50;42.65;98510.09;5036452;28;20190;-55
2021/07/23 03:05:37;;;;;;;4.80;4.37;;;;;;;25.53;42.59;98516.84;5037362;28;20206;-55
2021/07/23 03:08:11;;;;;;;4.87;4.47;;;;;;;25.55;42.45;98511.31;5037111;28;20260;-55
2021/07/23 03:10:48;;;;;;;4.93;4.53;;;;;;;25.54;42.41;98504.31;5021743;28;20221;-57
2021/07/23 03:13:16;;;;;;;5.20;4.70;;;;;;;25.56;42.46;98504.94;5036861;28;20261;-55
2021/07/23 03:15:42;;;;;;;4.90;4.50;;;;;;;25.53;42.44;98498.16;5036211;28;20679;-55
2021/07/23 03:18:11;;;;;;;4.80;4.40;;;;;;;25.55;42.42;98505.97;5037602;28;20269;-56
2021/07/23 03:20:38;;;;;;;4.97;4.57;;;;;;;25.55;42.19;98500.63;5035532;28;20245;-55
2021/07/23 03:23:06;;;;;;;4.97;4.57;;;;;;;25.59;42.17;98496.50;5035925;28;20194;-57
2021/07/23 03:25:46;;;;;;;5.03;4.60;;;;;;;25.56;42.42;98502.25;5037005;28;20198;-57
2021/07/23 03:28:35;;;;;;;4.70;4.30;;;;;;;25.53;42.31;98500.00;5033700;28;20228;-56
2021/07/23 03:31:13;;;;;;;5.33;4.83;;;;;;;25.54;42.30;98496.31;5019977;28;20224;-55
2021/07/23 03:33:45;;;;;;;4.73;4.23;;;;;;;25.53;42.47;98497.34;5035968;28;20216;-57
2021/07/23 03:36:13;;;;;;;4.40;3.97;;;;;;;25.51;42.35;98490.34;5036213;28;20300;-56
2021/07/23 03:38:42;;;;;;;5.33;4.83;;;;;;;25.49;42.21;98492.41;5036199;28;20232;-57
2021/07/23 03:41:10;;;;;;;4.83;4.43;;;;;;;25.49;42.38;98496.91;5035722;28;20248;-56
2021/07/23 03:43:36;;;;;;;4.80;4.40;;;;;;;25.49;42.32;98497.75;5035995;28;20201;-55
2021/07/23 03:46:07;;;;;;;4.90;4.50;;;;;;;25.50;42.36;98495.88;5035274;28;20206;-56
2021/07/23 03:48:40;;;;;;;4.87;4.47;;;;;;;25.49;42.37;98489.75;5035806;28;20292;-57
2021/07/23 03:51:12;;;;;;;5.33;4.83;;;;;;;25.51;42.43;98482.34;5035915;28;20217;-55
2021/07/23 03:53:39;;;;;;;4.60;4.20;;;;;;;25.55;42.19;98489.94;5036629;28;20250;-57
2021/07/23 03:56:22;;;;;;;4.70;4.30;;;;;;;25.55;42.31;98481.91;5035989;28;20346;-57
2021/07/23 03:58:52;;;;;;;5.33;4.93;;;;;;;25.57;42.27;98483.38;5037148;28;20179;-56
2021/07/23 04:01:25;;;;;;;5.03;4.57;;;;;;;25.57;41.98;98486.03;5035553;28;20190;-57
2021/07/23 04:03:54;;;;;;;5.37;4.87;;;;;;;25.55;42.00;98484.59;5035465;28;20545;-55
2021/07/23 04:06:23;;;;;;;4.90;4.50;;;;;;;25.53;42.32;98487.47;5035497;28;20284;-57
2021/07/23 04:08:50;;;;;;;5.47;5.00;;;;;;;25.53;42.26;98486.66;5036695;28;20634;-56
2021/07/23 04:11:32;;;;;;;5.40;5.00;;;;;;;25.56;42.27;98484.38;5035296;28;20194;-56
2021/07/23 04:14:04;;;;;;;5.00;4.60;;;;;;;25.57;41.90;98487.88;5019899;28;20202;-57
2021/07/23 04:16:31;;;;;;;5.00;4.50;;;;;;;25.65;41.92;98487.66;5036998;28;20653;-57
2021/07/23 04:18:58;;;;;;;5.13;4.63;;;;;;;25.63;41.86;98487.03;5035402;28;20320;-57
2021/07/23 04:21:36;;;;;;;4.90;4.40;;;;;;;25.60;42.11;98492.78;5035891;28;20253;-56
2021/07/23 04:24:15;;;;;;;5.27;4.80;;;;;;;25.57;42.05;98491.38;5035805;28;20186;-56
2021/07/23 04:26:43;;;;;;;5.20;4.67;;;;;;;25.57;42.04;98490.53;5035203;28;20198;-57
2021/07/23 04:29:09;;;;;;;5.47;4.97;;;;;;;25.56;42.11;98491.56;5035038;28;20220;-56
2021/07/23 04:31:36;;;;;;;5.10;4.70;;;;;;;25.53;42.03;98494.66;5035296;28;20290;-56
2021/07/23 04:34:03;;;;;;;4.87;4.47;;;;;;;25.50;42.04;98498.56;5036646;28;20201;-56
2021/07/23 04:36:29;;;;;;;5.00;4.60;;;;;;;25.51;42.10;98495.69;5036972;28;20576;-57
2021/07/23 04:39:03;;;;;;;5.23;4.20;;;;;;;25.53;41.83;98494.66;5035260;28;20189;-55
2021/07/23 04:41:31;;;;;;;4.80;4.30;;;;;;;25.55;41.91;98496.09;5036943;28;20276;-56
2021/07/23 04:43:58;;;;;;;5.10;4.60;;;;;;;25.56;41.91;98504.94;5034977;28;20284;-57
2021/07/23 04:46:25;;;;;;;4.70;4.30;;;;;;;25.56;41.83;98502.25;5035155;28;20225;-57
2021/07/23 04:48:52;;;;;;;5.07;4.67;;;;;;;25.63;41.62;98509.25;5036108;28;20253;-57
2021/07/23 04:51:36;;;;;;;4.90;4.43;;;;;;;25.62;41.60;98502.25;5020996;28;20198;-57
2021/07/23 04:54:41;;;;;;;4.93;4.43;;;;;;;25.60;41.88;98506.16;5034433;28;20213;-56
2021/07/23 04:57:28;;;;;;;4.83;4.37;;;;;;;25.60;41.84;98511.50;5034468;28;20208;-57
2021/07/23 04:59:57;;;;;;;5.80;4.30;;;;;;;25.65;41.70;98509.03;5034609;28;20680;-56
2021/07/23 05:02:24;;;;;;;4.80;4.40;;;;;;;25.64;41.52;98507.38;5034771;28;20197;-57
2021/07/23 05:04:51;;;;;;;5.20;4.70;;;;;;;25.67;41.60;98512.34;5036790;28;20186;-57
2021/07/23 05:07:17;;;;;;;4.80;4.40;;;;;;;25.64;41.73;98510.06;5035000;28;20190;-57
2021/07/23 05:09:44;;;;;;;4.77;4.37;;;;;;;25.60;41.91;98508.84;5036196;28;20632;-56
2021/07/23 05:12:12;;;;;;;4.87;4.47;;;;;;;25.59;41.67;98505.34;5035955;28;20210;-56
2021/07/23 05:14:38;;;;;;;4.87;4.47;;;;;;;25.56;41.89;98512.94;5036205;28;20194;-56
2021/07/23 05:17:06;;;;;;;5.43;4.90;;;;;;;25.54;41.85;98507.00;5036578;28;20186;-57
2021/07/23 05:19:33;;;;;;;5.30;4.90;;;;;;;25.58;41.93;98508.22;5035882;28;20213;-57
2021/07/23 05:22:00;;;;;;;5.20;4.70;;;;;;;25.57;41.85;98506.56;5036658;28;20193;-56
2021/07/23 05:24:27;;;;;;;5.17;4.77;;;;;;;25.61;41.81;98505.13;5036237;28;20547;-55
2021/07/23 05:26:53;;;;;;;5.10;4.33;;;;;;;25.59;41.64;98512.53;5035058;28;20205;-56
2021/07/23 05:29:20;;;;;;;6.13;5.50;;;;;;;25.58;41.53;98516.22;5032221;28;20292;-56
2021/07/23 05:31:46;;;;;;;6.57;5.87;;;;;;;25.53;41.28;98508.03;5031102;28;20208;-56
2021/07/23 05:34:13;;;;;;;5.80;5.30;;;;;;;25.40;41.26;98509.63;5032867;28;20188;-55
2021/07/23 05:36:39;;;;;;;7.20;6.53;;;;;;;25.27;41.24;98505.13;5032297;28;20201;-54
2021/07/23 05:39:07;;;;;;;8.53;6.87;;;;;;;25.10;41.52;98507.34;5032580;28;20178;-55
2021/07/23 05:41:33;;;;;;;6.80;6.13;;;;;;;24.99;41.68;98507.94;5032754;28;20186;-55
2021/07/23 05:44:01;;;;;;;7.50;6.80;;;;;;;24.94;41.70;98511.22;5030956;28;20186;-55
2021/07/23 05:46:27;;;;;;;7.93;6.53;;;;;;;24.87;41.85;98503.19;5032246;28;20190;-56
2021/07/23 05:48:54;;;;;;;7.63;6.80;;;;;;;24.87;41.75;98505.88;5032092;28;20700;-60
2021/07/23 05:51:21;;;;;;;6.77;6.17;;;;;;;24.87;41.76;98499.69;5031187;28;20567;-57
2021/07/23 05:55:08;;;;;;;8.17;6.67;;;;;;;24.53;42.87;98489.72;5071307;28;20539;-56
2021/07/23 05:57:35;;;;;;;6.70;6.10;;;;;;;24.66;42.66;98504.13;5070337;28;20181;-56
2021/07/23 06:00:05;;;;;;;7.87;6.77;;;;;;;24.63;42.76;98499.19;5070133;28;20258;-54
2021/07/23 06:02:38;;;;;;;7.37;6.07;;;;;;;24.59;42.94;98497.94;5070384;28;20181;-56
2021/07/23 06:05:05;;;;;;;7.87;6.20;;;;;;;24.69;42.76;98498.38;5070056;28;20213;-56
2021/07/23 06:07:32;;;;;;;7.17;6.40;;;;;;;24.73;42.90;98499.63;5070589;28;20188;-55
2021/07/23 06:09:58;;;;;;;6.67;6.07;;;;;;;24.76;42.82;98503.78;5070064;28;20253;-54
2021/07/23 06:12:25;;;;;;;13.20;6.53;;;;;;;24.82;42.92;98505.63;5070637;28;20197;-55
2021/07/23 06:14:51;;;;;;;6.80;6.10;;;;;;;24.89;42.60;98502.97;5068638;28;20216;-55
2021/07/23 06:17:18;;;;;;;7.13;6.40;;;;;;;24.93;42.52;98498.91;5069994;28;20193;-53
2021/07/23 06:19:45;;;;;;;9.03;6.13;;;;;;;24.92;42.40;98498.06;5069931;28;20228;-55
2021/07/23 06:22:11;;;;;;;9.50;6.40;;;;;;;24.93;42.68;98494.38;5068637;28;20195;-54
2021/07/23 06:24:40;;;;;;;6.87;6.23;;;;;;;24.88;42.80;98502.19;5069845;28;20203;-54
2021/07/23 06:27:06;;;;;;;8.67;7.67;;;;;;;24.65;43.31;98495.28;5069898;28;20193;-55
2021/07/23 06:29:33;;;;;;;9.57;8.07;;;;;;;24.64;43.51;98493.66;5069631;28;20694;-54
2021/07/23 06:31:59;;;;;;;11.30;7.97;;;;;;;24.61;43.76;98495.91;5069795;28;20250;-54
2021/07/23 06:34:26;;;;;;;8.80;8.00;;;;;;;24.53;44.31;98483.56;5070117;28;20216;-56
2021/07/23 06:36:53;;;;;;;9.47;8.43;;;;;;;24.53;44.37;98494.25;5069434;28;20189;-56
2021/07/23 06:39:19;;;;;;;9.93;7.93;;;;;;;24.59;44.18;98488.09;5069934;28;20702;-55
2021/07/23 06:41:46;;;;;;;8.90;8.00;;;;;;;24.60;44.34;98488.91;5068466;28;20193;-55
2021/07/23 06:44:13;;;;;;;9.50;8.50;;;;;;;24.55;44.81;98486.03;5069249;28;20187;-54
2021/07/23 06:46:39;;;;;;;9.60;8.60;;;;;;;24.40;45.14;98489.66;5069274;28;20291;-52
2021/07/23 06:49:06;;;;;;;11.70;8.60;;;;;;;24.63;44.75;98489.34;5069224;28;20213;-55
2021/07/23 06:51:32;;;;;;;9.40;8.37;;;;;;;24.89;44.32;98485.13;5069245;28;20655;-54
2021/07/23 06:53:59;;;;;;;9.73;8.37;;;;;;;25.01;44.22;98490.69;5069057;28;20218;-53
2021/07/23 06:56:25;;;;;;;9.60;8.47;;;;;;;25.13;44.46;98488.22;5067975;28;20590;-55
2021/07/23 06:58:52;;;;;;;9.90;7.90;;;;;;;25.11;44.25;98484.16;5069076;28;20185;-57
2021/07/23 07:01:18;;;;;;;8.70;7.73;;;;;;;25.04;44.42;98481.47;5069087;28;20200;-57
2021/07/23 07:03:45;;;;;;;9.70;8.10;;;;;;;24.95;44.68;98486.97;5068274;28;20196;-59
2021/07/23 07:06:11;;;;;;;8.80;7.90;;;;;;;24.90;44.96;98484.09;5056147;28;20196;-57
2021/07/23 07:08:38;;;;;;;9.43;8.17;;;;;;;24.86;45.03;98488.22;5055937;28;20194;-58
2021/07/23 07:11:04;;;;;;;9.53;7.63;;;;;;;24.86;45.19;98490.88;5055861;28;20205;-57
2021/07/23 07:13:31;;;;;;;10.40;7.97;;;;;;;24.89;45.23;98484.28;5055378;28;20205;-56
2021/07/23 07:15:58;;;;;;;9.30;8.33;;;;;;;24.95;45.02;98486.97;5055579;28;20193;-57
2021/07/23 07:18:24;;;;;;;9.17;7.50;;;;;;;24.97;44.80;98485.94;5055559;28;20193;-57
2021/07/23 07:20:51;;;;;;;9.67;7.67;;;;;;;24.99;44.78;98487.41;5055387;28;20209;-57
2021/07/23 07:23:17;;;;;;;8.77;7.20;;;;;;;25.02;44.90;98489.66;5055584;28;20193;-57
2021/07/23 07:25:44;;;;;;;10.27;7.50;;;;;;;25.05;44.81;98488.44;5055544;28;20189;-57
2021/07/23 07:28:10;;;;;;;8.60;7.60;;;;;;;25.09;44.87;98492.34;5055297;28;20194;-57
2021/07/23 07:30:56;;;;;;;8.10;7.20;;;;;;;25.11;44.61;98484.94;5054418;28;20217;-57
2021/07/23 07:33:22;;;;;;;8.10;7.27;;;;;;;25.18;44.50;98490.31;5055039;28;20196;-57
2021/07/23 07:35:50;;;;;;;8.70;7.03;;;;;;;25.25;44.77;98492.97;5055242;28;20683;-57
2021/07/23 07:38:17;;;;;;;10.07;7.47;;;;;;;25.32;44.46;98489.28;5055045;28;20192;-57
2021/07/23 07:40:44;;;;;;;8.47;7.67;;;;;;;25.36;44.25;98492.38;5054970;28;20205;-57
2021/07/23 07:43:10;;;;;;;10.33;7.50;;;;;;;25.30;44.37;98493.19;5055116;28;20197;-57
2021/07/23 07:45:37;;;;;;;8.23;7.43;;;;;;;25.37;44.15;98494.03;5054746;28;20766;-57
2021/07/23 07:48:04;;;;;;;8.10;7.30;;;;;;;25.42;44.06;98493.41;5052926;28;20189;-55
2021/07/23 07:50:32;;;;;;;8.23;7.43;;;;;;;25.41;43.95;98484.56;5053669;28;20209;-54
2021/07/23 07:53:07;;;;;;;7.50;6.80;;;;;;;25.47;43.92;98478.38;5053496;28;20243;-53
2021/07/23 07:55:34;;;;;;;8.80;7.77;;;;;;;25.51;43.57;98482.34;5053839;28;20194;-55
2021/07/23 07:58:01;;;;;;;7.77;6.93;;;;;;;25.56;43.36;98483.56;5053774;28;20185;-55
2021/07/23 08:00:27;;;;;;;8.53;7.60;;;;;;;25.56;43.48;98486.22;5052408;28;20224;-55
2021/07/23 08:02:54;;;;;;;7.80;7.10;;;;;;;25.58;43.29;98478.81;5054233;28;20259;-53
2021/07/23 08:05:21;;;;;;;8.20;7.03;;;;;;;25.58;43.42;98478.81;5053695;28;20189;-55
2021/07/23 08:07:48;;;;;;;8.23;6.47;;;;;;;25.59;43.28;98470.63;5053652;28;20201;-54
2021/07/23 08:10:16;;;;;;;7.53;6.83;;;;;;;25.58;43.42;98470.81;5054453;28;20209;-55
2021/07/23 08:12:42;;;;;;;8.13;6.63;;;;;;;25.62;42.97;98461.34;5054967;28;20191;-55
2021/07/23 08:15:10;;;;;;;7.80;7.03;;;;;;;25.76;42.98;98467.50;5054299;28;20209;-53
2021/07/23 08:17:37;;;;;;;7.47;6.50;;;;;;;25.58;43.18;98452.09;5053684;28;20206;-53
2021/07/23 08:20:05;;;;;;;7.63;6.90;;;;;;;25.61;43.28;98457.03;5054163;28;20201;-55
2021/07/23 08:22:33;;;;;;;7.80;7.10;;;;;;;25.63;43.39;98450.47;5054816;28;20196;-55
2021/07/23 08:24:59;;;;;;;7.97;6.60;;;;;;;25.63;43.07;98450.47;5054520;28;20186;-54
2021/07/23 08:27:27;;;;;;;7.53;6.73;;;;;;;25.59;43.24;98446.56;5054436;28;20189;-54
2021/07/23 08:29:55;;;;;;;7.13;6.37;;;;;;;25.61;43.16;98439.16;5053025;28;20572;-55
2021/07/23 08:32:21;;;;;;;7.77;6.93;;;;;;;25.64;42.92;98440.56;5054356;28;20185;-55
2021/07/23 08:34:55;;;;;;;7.30;6.60;;;;;;;25.67;43.15;98439.34;5053948;28;20681;-53
2021/07/23 08:37:22;;;;;;;8.63;6.83;;;;;;;25.62;42.87;98432.78;5052773;28;20189;-55
2021/07/23 08:39:49;;;;;;;7.63;6.90;;;;;;;25.65;42.98;98437.72;5053843;28;20206;-53
2021/07/23 08:42:29;;;;;;;7.80;7.00;;;;;;;25.68;42.91;98431.13;5052694;28;20678;-55
2021/07/23 08:44:57;;;;;;;6.80;6.10;;;;;;;25.73;42.97;98430.47;5053881;28;20537;-54
2021/07/23 08:47:24;;;;;;;7.53;6.83;;;;;;;25.75;42.82;98431.94;5054046;28;20600;-55
2021/07/23 08:49:52;;;;;;;6.97;6.07;;;;;;;25.80;42.52;98434.78;5052370;28;20267;-55
2021/07/23 08:52:46;;;;;;;7.07;6.30;;;;;;;25.84;42.77;98435.19;5053755;28;20197;-55
2021/07/23 08:55:15;;;;;;;6.60;6.00;;;;;;;25.84;42.74;98434.38;5053914;28;20535;-54
2021/07/23 08:57:43;;;;;;;6.60;5.93;;;;;;;25.86;42.37;98443.81;5052474;28;20682;-55
2021/07/23 09:00:15;;;;;;;7.70;7.00;;;;;;;25.89;42.43;98439.91;5053786;28;20220;-54
2021/07/23 09:02:57;;;;;;;6.70;6.17;;;;;;;25.90;42.60;98447.75;5053562;28;20646;-54
2021/07/23 09:05:28;;;;;;;7.30;6.60;;;;;;;25.94;42.62;98450.78;5053712;28;20173;-55
2021/07/23 09:08:16;;;;;;;7.80;6.70;;;;;;;25.93;42.86;98444.63;5053501;28;20557;-53
2021/07/23 09:10:44;;;;;;;7.40;6.70;;;;;;;26.00;42.76;98444.63;5053456;28;20205;-55
2021/07/23 09:13:20;;;;;;;7.77;7.07;;;;;;;25.97;42.46;98437.00;5053442;28;20193;-53
2021/07/23 09:15:46;;;;;;;7.40;6.70;;;;;;;25.89;42.83;98432.72;5053345;28;20737;-54
2021/07/23 09:18:20;;;;;;;7.47;6.77;;;;;;;25.89;42.98;98437.25;5053271;28;20225;-55
2021/07/23 09:21:06;;;;;;;6.70;6.10;;;;;;;25.96;42.81;98431.88;5053146;28;20221;-55
2021/07/23 09:23:35;;;;;;;6.97;6.30;;;;;;;25.94;42.90;98435.59;5053534;28;20309;-54
2021/07/23 09:26:18;;;;;;;6.80;6.20;;;;;;;25.96;42.70;98437.22;5053710;28;20197;-55
2021/07/23 09:28:45;;;;;;;6.30;5.70;;;;;;;26.04;42.72;98435.13;5053360;28;20243;-55
2021/07/23 09:31:28;;;;;;;7.40;6.70;;;;;;;26.08;42.33;98419.50;5053040;28;20209;-54
2021/07/23 09:33:59;;;;;;;6.90;6.20;;;;;;;26.15;42.15;98416.81;5052187;28;20198;-55
2021/07/23 09:36:28;;;;;;;6.97;6.37;;;;;;;26.17;42.25;98420.09;5053106;28;20185;-54
2021/07/23 09:39:18;;;;;;;7.50;6.80;;;;;;;26.23;42.06;98419.25;5052964;28;20683;-54
2021/07/23 09:41:59;;;;;;;7.30;6.60;;;;;;;26.23;42.18;98416.56;5053033;28;20174;-55
2021/07/23 09:44:26;;;;;;;6.33;5.83;;;;;;;26.31;41.84;98416.34;5051665;28;20192;-55
2021/07/23 09:46:52;;;;;;;6.97;6.37;;;;;;;26.34;41.86;98409.72;5051630;28;20205;-54
2021/07/23 09:49:21;;;;;;;6.93;6.33;;;;;;;26.27;42.08;98415.09;5052876;28;20296;-54
2021/07/23 09:51:49;;;;;;;6.60;6.00;;;;;;;26.27;42.09;98412.44;5052923;28;20695;-55
2021/07/23 09:54:18;;;;;;;7.03;6.43;;;;;;;26.32;42.12;98407.28;5052892;28;20232;-53
2021/07/23 09:56:49;;;;;;;7.60;6.90;;;;;;;26.32;42.06;98404.59;5052867;28;20714;-53
2021/07/23 09:59:25;;;;;;;7.10;6.40;;;;;;;26.32;42.03;98409.13;5052797;28;20209;-55
2021/07/23 10:02:00;;;;;;;6.13;5.53;;;;;;;26.38;41.77;98402.09;5051912;28;20620;-53
2021/07/23 10:04:36;;;;;;;6.80;6.20;;;;;;;26.41;41.76;98401.66;5052786;28;20176;-55
2021/07/23 10:07:12;;;;;;;6.67;6.10;;;;;;;26.38;42.07;98399.44;5052733;28;20177;-53
2021/07/23 10:09:42;;;;;;;7.17;6.57;;;;;;;26.36;41.74;98394.28;5052876;28;20584;-54
2021/07/23 10:12:12;;;;;;;7.27;6.67;;;;;;;26.32;41.75;98390.41;5053541;28;20177;-55
2021/07/23 10:14:46;;;;;;;6.63;5.93;;;;;;;26.30;41.98;98384.44;5053534;28;20202;-54
2021/07/23 10:17:14;;;;;;;7.27;6.07;;;;;;;26.28;41.92;98381.97;5051400;28;20190;-57
2021/07/23 10:19:40;;;;;;;7.30;6.60;;;;;;;26.26;41.67;98384.06;5052556;28;20224;-57
2021/07/23 10:22:11;;;;;;;8.00;7.10;;;;;;;26.29;41.76;98367.56;5052514;28;20193;-56
2021/07/23 10:24:41;;;;;;;7.87;7.17;;;;;;;26.33;41.54;98370.63;5053151;28;20701;-56
2021/07/23 10:27:10;;;;;;;9.73;7.00;;;;;;;26.39;41.38;98366.28;5053070;28;20239;-57
2021/07/23 10:29:45;;;;;;;8.10;7.30;;;;;;;26.39;41.12;98367.13;5051189;28;20232;-57
2021/07/23 10:32:24;;;;;;;10.10;9.10;;;;;;;26.43;41.28;98362.13;5053093;28;20175;-56
2021/07/23 10:34:53;;;;;;;8.53;7.73;;;;;;;26.51;40.90;98367.25;5051079;28;20215;-56
2021/07/23 10:37:29;;;;;;;8.60;7.70;;;;;;;26.48;40.58;98360.47;5052511;28;20188;-55
2021/07/23 10:40:07;;;;;;;10.30;9.10;;;;;;;26.50;40.32;98352.22;5052758;28;20212;-56
2021/07/23 10:42:39;;;;;;;9.43;8.53;;;;;;;26.53;40.48;98345.59;5056381;28;20181;-57
2021/07/23 10:45:07;;;;;;;9.30;8.40;;;;;;;26.54;40.27;98340.06;5055265;28;20177;-56
2021/07/23 10:47:42;;;;;;;9.37;8.47;;;;;;;26.57;40.20;98336.94;5056090;28;20231;-57
2021/07/23 10:50:32;;;;;;;9.90;8.97;;;;;;;26.59;39.83;98342.88;5056098;28;20254;-57
2021/07/23 10:53:25;;;;;;;9.73;8.30;;;;;;;26.64;39.67;98336.88;5051966;28;20666;-57
2021/07/23 10:55:52;;;;;;;9.00;8.17;;;;;;;26.68;39.94;98338.09;5049231;28;20767;-57
2021/07/23 10:58:18;;;;;;;9.37;8.47;;;;;;;26.69;39.58;98333.56;5056121;28;20188;-57
2021/07/23 11:00:55;;;;;;;9.83;8.90;;;;;;;26.66;39.69;98332.13;5055778;28;20206;-56
2021/07/23 11:03:37;;;;;;;9.70;8.73;;;;;;;26.60;39.94;98325.78;5056665;28;20530;-57
2021/07/23 11:06:21;;;;;;;9.93;8.93;;;;;;;26.63;39.81;98328.06;5055947;28;20202;-57
2021/07/23 11:08:50;;;;;;;9.40;8.50;;;;;;;26.62;39.88;98318.41;5056009;28;20174;-56
2021/07/23 11:11:25;;;;;;;11.37;8.97;;;;;;;26.63;39.60;98314.69;5055587;28;20209;-56
2021/07/23 11:13:51;;;;;;;9.47;8.20;;;;;;;26.64;39.57;98318.16;5055927;28;20177;-57
2021/07/23 11:16:22;;;;;;;9.70;8.70;;;;;;;26.67;39.38;98314.22;5055561;28;20213;-57
2021/07/23 11:19:15;;;;;;;9.47;8.57;;;;;;;26.63;39.79;98303.97;5056764;28;20539;-57
2021/07/23 11:21:42;;;;;;;9.17;8.27;;;;;;;26.66;39.76;98308.06;5055387;28;20178;-55
2021/07/23 11:24:09;;;;;;;10.07;8.57;;;;;;;26.70;39.69;98313.78;5055650;28;20587;-56
2021/07/23 11:26:37;;;;;;;10.40;9.20;;;;;;;26.81;39.35;98298.88;5054605;28;20200;-56
2021/07/23 11:29:04;;;;;;;10.00;9.00;;;;;;;26.78;39.31;98290.25;5055065;28;20198;-57
2021/07/23 11:31:37;;;;;;;9.30;8.27;;;;;;;26.80;39.24;98295.38;5057910;28;20665;-56
2021/07/23 11:34:27;;;;;;;8.60;7.70;;;;;;;26.78;39.19;98287.56;5069482;28;20231;-57
2021/07/23 11:36:54;;;;;;;9.50;8.50;;;;;;;26.79;39.07;98288.41;5053765;28;20178;-57
2021/07/23 11:39:22;;;;;;;8.90;8.00;;;;;;;26.79;39.04;98285.72;5068298;28;20216;-57
2021/07/23 11:42:05;;;;;;;9.50;8.60;;;;;;;26.79;39.04;98277.69;5074962;28;20184;-55
2021/07/23 11:44:33;;;;;;;9.67;8.67;;;;;;;26.77;39.00;98279.75;5074400;28;20185;-57
2021/07/23 11:47:01;;;;;;;9.47;8.67;;;;;;;26.76;39.10;98280.78;5068805;28;20210;-55
2021/07/23 11:49:31;;;;;;;9.67;8.77;;;;;;;26.82;38.62;98284.44;5053585;28;20217;-55